Terminal Aerodrome Forecast
Issued by NWS

Home | Current Version | Previous Version | Text Only | Print | Product List | Glossary On
Versions: 1 2 3 4 5 6 7 8 9 10 11 12
252
FTUS45 KABQ 141139
TAFLVS
TAF
KLVS 141139Z 1412/1512 06008KT P6SM BKN100
     FM141500 06012G22KT P6SM VCSH OVC070
     FM142100 12011KT P6SM VCSH OVC040
     FM150300 14006KT P6SM SCT050=

USA.gov is the U.S. government's official web portal to all federal, state and local government web resources and services.